sensor_id;sensor_type;location;lat;lon;timestamp;temperature;humidity
67777;DHT22;54576;52.020;5.536;2023-08-12T00:01:49;20.80;99.90
67777;DHT22;54576;52.020;5.536;2023-08-12T00:04:14;20.80;99.90
67777;DHT22;54576;52.020;5.536;2023-08-12T00:06:41;20.80;99.90
67777;DHT22;54576;52.020;5.536;2023-08-12T00:09:07;20.80;99.90
67777;DHT22;54576;52.020;5.536;2023-08-12T00:11:36;20.80;99.90
67777;DHT22;54576;52.020;5.536;2023-08-12T00:14:01;20.90;99.90
67777;DHT22;54576;52.020;5.536;2023-08-12T00:16:27;20.90;99.90
67777;DHT22;54576;52.020;5.536;2023-08-12T00:18:53;20.90;99.90
67777;DHT22;54576;52.020;5.536;2023-08-12T00:21:19;20.90;99.90
67777;DHT22;54576;52.020;5.536;2023-08-12T00:23:45;20.90;99.90
67777;DHT22;54576;52.020;5.536;2023-08-12T00:26:13;20.90;99.90
67777;DHT22;54576;52.020;5.536;2023-08-12T00:28:38;20.90;99.90
67777;DHT22;54576;52.020;5.536;2023-08-12T00:31:04;20.90;99.90
67777;DHT22;54576;52.020;5.536;2023-08-12T00:33:29;20.90;99.90
67777;DHT22;54576;52.020;5.536;2023-08-12T00:35:55;20.90;99.90
67777;DHT22;54576;52.020;5.536;2023-08-12T00:38:21;20.90;99.90
67777;DHT22;54576;52.020;5.536;2023-08-12T00:40:46;20.80;99.90
67777;DHT22;54576;52.020;5.536;2023-08-12T00:43:12;20.80;99.90
67777;DHT22;54576;52.020;5.536;2023-08-12T00:45:38;20.80;99.90
67777;DHT22;54576;52.020;5.536;2023-08-12T00:48:04;20.70;99.90
67777;DHT22;54576;52.020;5.536;2023-08-12T00:50:31;20.70;99.90
67777;DHT22;54576;52.020;5.536;2023-08-12T00:52:58;20.70;99.90
67777;DHT22;54576;52.020;5.536;2023-08-12T00:55:24;20.70;99.90
67777;DHT22;54576;52.020;5.536;2023-08-12T00:57:50;20.70;99.90
67777;DHT22;54576;52.020;5.536;2023-08-12T01:00:16;20.70;99.90
67777;DHT22;54576;52.020;5.536;2023-08-12T01:02:47;20.70;99.90
67777;DHT22;54576;52.020;5.536;2023-08-12T01:05:14;20.70;99.90
67777;DHT22;54576;52.020;5.536;2023-08-12T01:07:42;20.70;99.90
67777;DHT22;54576;52.020;5.536;2023-08-12T01:10:08;20.70;99.90
67777;DHT22;54576;52.020;5.536;2023-08-12T01:12:59;20.70;99.90
67777;DHT22;54576;52.020;5.536;2023-08-12T01:15:28;20.70;99.90
67777;DHT22;54576;52.020;5.536;2023-08-12T01:17:55;20.60;99.90
67777;DHT22;54576;52.020;5.536;2023-08-12T01:20:23;20.60;99.90
67777;DHT22;54576;52.020;5.536;2023-08-12T01:23:17;20.50;99.90
67777;DHT22;54576;52.020;5.536;2023-08-12T01:25:42;20.50;99.90
67777;DHT22;54576;52.020;5.536;2023-08-12T01:28:08;20.50;99.90
67777;DHT22;54576;52.020;5.536;2023-08-12T01:30:50;20.50;99.90
67777;DHT22;54576;52.020;5.536;2023-08-12T01:33:25;20.40;99.90
67777;DHT22;54576;52.020;5.536;2023-08-12T01:36:15;20.40;99.90
67777;DHT22;54576;52.020;5.536;2023-08-12T01:38:42;20.40;99.90
67777;DHT22;54576;52.020;5.536;2023-08-12T01:41:10;20.30;99.90
67777;DHT22;54576;52.020;5.536;2023-08-12T01:43:37;20.40;99.90
67777;DHT22;54576;52.020;5.536;2023-08-12T01:46:03;20.40;99.90
67777;DHT22;54576;52.020;5.536;2023-08-12T01:48:29;20.40;99.90
67777;DHT22;54576;52.020;5.536;2023-08-12T01:50:55;20.40;99.90
67777;DHT22;54576;52.020;5.536;2023-08-12T01:53:20;20.50;99.90
67777;DHT22;54576;52.020;5.536;2023-08-12T01:55:46;20.50;99.90
67777;DHT22;54576;52.020;5.536;2023-08-12T01:58:11;20.40;99.90
67777;DHT22;54576;52.020;5.536;2023-08-12T02:00:37;20.40;99.90
67777;DHT22;54576;52.020;5.536;2023-08-12T02:03:03;20.50;99.90
67777;DHT22;54576;52.020;5.536;2023-08-12T02:05:29;20.50;99.90
67777;DHT22;54576;52.020;5.536;2023-08-12T02:07:54;20.50;99.90
67777;DHT22;54576;52.020;5.536;2023-08-12T02:10:20;20.50;99.90
67777;DHT22;54576;52.020;5.536;2023-08-12T02:12:45;20.40;99.90
67777;DHT22;54576;52.020;5.536;2023-08-12T02:15:11;20.40;99.90
67777;DHT22;54576;52.020;5.536;2023-08-12T02:17:36;20.40;99.90
67777;DHT22;54576;52.020;5.536;2023-08-12T02:20:05;20.40;99.90
67777;DHT22;54576;52.020;5.536;2023-08-12T02:22:31;20.40;99.90
67777;DHT22;54576;52.020;5.536;2023-08-12T02:24:57;20.40;99.90
67777;DHT22;54576;52.020;5.536;2023-08-12T02:27:22;20.30;99.90
67777;DHT22;54576;52.020;5.536;2023-08-12T02:29:48;20.40;99.90
67777;DHT22;54576;52.020;5.536;2023-08-12T02:32:13;20.40;99.90
67777;DHT22;54576;52.020;5.536;2023-08-12T02:34:39;20.40;99.90
67777;DHT22;54576;52.020;5.536;2023-08-12T02:37:05;20.40;99.90
67777;DHT22;54576;52.020;5.536;2023-08-12T02:39:33;20.40;99.90
67777;DHT22;54576;52.020;5.536;2023-08-12T02:41:58;20.40;99.90
67777;DHT22;54576;52.020;5.536;2023-08-12T02:44:24;20.30;99.90
67777;DHT22;54576;52.020;5.536;2023-08-12T02:46:50;20.40;99.90
67777;DHT22;54576;52.020;5.536;2023-08-12T02:49:15;20.40;99.90
67777;DHT22;54576;52.020;5.536;2023-08-12T02:51:44;20.30;99.90
67777;DHT22;54576;52.020;5.536;2023-08-12T02:54:09;20.40;99.90
67777;DHT22;54576;52.020;5.536;2023-08-12T02:56:35;20.40;99.90
67777;DHT22;54576;52.020;5.536;2023-08-12T02:59:00;20.40;99.90
67777;DHT22;54576;52.020;5.536;2023-08-12T03:01:26;20.40;99.90
67777;DHT22;54576;52.020;5.536;2023-08-12T03:03:53;20.40;99.90
67777;DHT22;54576;52.020;5.536;2023-08-12T03:06:18;20.40;99.90
67777;DHT22;54576;52.020;5.536;2023-08-12T03:08:44;20.40;99.90
67777;DHT22;54576;52.020;5.536;2023-08-12T03:11:09;20.40;99.90
67777;DHT22;54576;52.020;5.536;2023-08-12T03:13:35;20.40;99.90
67777;DHT22;54576;52.020;5.536;2023-08-12T03:16:00;20.40;99.90
67777;DHT22;54576;52.020;5.536;2023-08-12T03:18:26;20.40;99.90
67777;DHT22;54576;52.020;5.536;2023-08-12T03:20:52;20.40;99.90
67777;DHT22;54576;52.020;5.536;2023-08-12T03:23:17;20.40;99.90
67777;DHT22;54576;52.020;5.536;2023-08-12T03:25:43;20.50;99.90
67777;DHT22;54576;52.020;5.536;2023-08-12T03:28:09;20.40;99.90
67777;DHT22;54576;52.020;5.536;2023-08-12T03:30:34;20.40;99.90
67777;DHT22;54576;52.020;5.536;2023-08-12T03:33:00;20.40;99.90
67777;DHT22;54576;52.020;5.536;2023-08-12T03:35:25;20.40;99.90
67777;DHT22;54576;52.020;5.536;2023-08-12T03:37:51;20.40;99.90
67777;DHT22;54576;52.020;5.536;2023-08-12T03:40:17;20.40;99.90
67777;DHT22;54576;52.020;5.536;2023-08-12T03:42:43;20.40;99.90
67777;DHT22;54576;52.020;5.536;2023-08-12T03:45:09;20.40;99.90
67777;DHT22;54576;52.020;5.536;2023-08-12T03:47:34;20.40;99.90
67777;DHT22;54576;52.020;5.536;2023-08-12T03:50:00;20.40;99.90
67777;DHT22;54576;52.020;5.536;2023-08-12T03:52:26;20.40;99.90
67777;DHT22;54576;52.020;5.536;2023-08-12T03:54:51;20.40;99.90
67777;DHT22;54576;52.020;5.536;2023-08-12T03:57:18;20.40;99.90
67777;DHT22;54576;52.020;5.536;2023-08-12T03:59:44;20.40;99.90
67777;DHT22;54576;52.020;5.536;2023-08-12T04:02:09;20.40;99.90
67777;DHT22;54576;52.020;5.536;2023-08-12T04:04:35;20.40;99.90
67777;DHT22;54576;52.020;5.536;2023-08-12T04:07:00;20.40;99.90
67777;DHT22;54576;52.020;5.536;2023-08-12T04:09:26;20.40;99.90
67777;DHT22;54576;52.020;5.536;2023-08-12T04:11:51;20.50;99.90
67777;DHT22;54576;52.020;5.536;2023-08-12T04:14:17;20.40;99.90
67777;DHT22;54576;52.020;5.536;2023-08-12T04:16:43;20.50;99.90
67777;DHT22;54576;52.020;5.536;2023-08-12T04:19:08;20.40;99.90
67777;DHT22;54576;52.020;5.536;2023-08-12T04:21:34;20.50;99.90
67777;DHT22;54576;52.020;5.536;2023-08-12T04:24:00;20.50;99.90
67777;DHT22;54576;52.020;5.536;2023-08-12T04:26:25;20.50;99.90
67777;DHT22;54576;52.020;5.536;2023-08-12T04:28:51;20.50;99.90
67777;DHT22;54576;52.020;5.536;2023-08-12T04:31:16;20.50;99.90
67777;DHT22;54576;52.020;5.536;2023-08-12T04:33:42;20.50;99.90
67777;DHT22;54576;52.020;5.536;2023-08-12T04:36:07;20.50;99.90
67777;DHT22;54576;52.020;5.536;2023-08-12T04:38:33;20.50;99.90
67777;DHT22;54576;52.020;5.536;2023-08-12T04:41:08;20.60;99.90
67777;DHT22;54576;52.020;5.536;2023-08-12T04:43:33;20.50;99.90
67777;DHT22;54576;52.020;5.536;2023-08-12T04:45:59;20.50;99.90
67777;DHT22;54576;52.020;5.536;2023-08-12T04:48:25;20.50;99.90
67777;DHT22;54576;52.020;5.536;2023-08-12T04:50:50;20.60;99.90
67777;DHT22;54576;52.020;5.536;2023-08-12T04:53:16;20.60;99.90
67777;DHT22;54576;52.020;5.536;2023-08-12T04:55:41;20.60;99.90
67777;DHT22;54576;52.020;5.536;2023-08-12T04:58:07;20.60;99.90
67777;DHT22;54576;52.020;5.536;2023-08-12T05:00:33;20.60;99.90
67777;DHT22;54576;52.020;5.536;2023-08-12T05:02:58;20.60;99.90
67777;DHT22;54576;52.020;5.536;2023-08-12T05:05:28;20.70;99.90
67777;DHT22;54576;52.020;5.536;2023-08-12T05:07:53;20.60;99.90
67777;DHT22;54576;52.020;5.536;2023-08-12T05:10:19;20.60;99.90
67777;DHT22;54576;52.020;5.536;2023-08-12T05:12:45;20.60;99.90
67777;DHT22;54576;52.020;5.536;2023-08-12T05:15:11;20.60;99.90
67777;DHT22;54576;52.020;5.536;2023-08-12T05:17:37;20.60;99.90
67777;DHT22;54576;52.020;5.536;2023-08-12T05:20:03;20.50;99.90
67777;DHT22;54576;52.020;5.536;2023-08-12T05:22:29;20.50;99.90
67777;DHT22;54576;52.020;5.536;2023-08-12T05:24:55;20.50;99.90
67777;DHT22;54576;52.020;5.536;2023-08-12T05:27:20;20.50;99.90
67777;DHT22;54576;52.020;5.536;2023-08-12T05:29:46;20.60;99.90
67777;DHT22;54576;52.020;5.536;2023-08-12T05:32:12;20.50;99.90
67777;DHT22;54576;52.020;5.536;2023-08-12T05:34:43;20.50;99.90
67777;DHT22;54576;52.020;5.536;2023-08-12T05:37:09;20.40;99.90
67777;DHT22;54576;52.020;5.536;2023-08-12T05:39:34;20.40;99.90
67777;DHT22;54576;52.020;5.536;2023-08-12T05:42:00;20.40;99.90
67777;DHT22;54576;52.020;5.536;2023-08-12T05:44:26;20.40;99.90
67777;DHT22;54576;52.020;5.536;2023-08-12T05:46:54;20.40;99.90
67777;DHT22;54576;52.020;5.536;2023-08-12T05:49:19;20.40;99.90
67777;DHT22;54576;52.020;5.536;2023-08-12T05:51:45;20.40;99.90
67777;DHT22;54576;52.020;5.536;2023-08-12T05:54:11;20.40;99.90
67777;DHT22;54576;52.020;5.536;2023-08-12T05:56:36;20.30;99.90
67777;DHT22;54576;52.020;5.536;2023-08-12T05:59:02;20.30;99.90
67777;DHT22;54576;52.020;5.536;2023-08-12T06:01:27;20.30;99.90
67777;DHT22;54576;52.020;5.536;2023-08-12T06:03:53;20.30;99.90
67777;DHT22;54576;52.020;5.536;2023-08-12T06:06:19;20.30;99.90
67777;DHT22;54576;52.020;5.536;2023-08-12T06:08:44;20.30;99.90
67777;DHT22;54576;52.020;5.536;2023-08-12T06:11:10;20.30;99.90
67777;DHT22;54576;52.020;5.536;2023-08-12T06:13:35;20.30;99.90
67777;DHT22;54576;52.020;5.536;2023-08-12T06:16:01;20.30;99.90
67777;DHT22;54576;52.020;5.536;2023-08-12T06:18:26;20.30;99.90
67777;DHT22;54576;52.020;5.536;2023-08-12T06:20:52;20.30;99.90
67777;DHT22;54576;52.020;5.536;2023-08-12T06:23:18;20.30;99.90
67777;DHT22;54576;52.020;5.536;2023-08-12T06:25:43;20.30;99.90
67777;DHT22;54576;52.020;5.536;2023-08-12T06:28:09;20.30;99.90
67777;DHT22;54576;52.020;5.536;2023-08-12T06:30:35;20.30;99.90
67777;DHT22;54576;52.020;5.536;2023-08-12T06:33:01;20.30;99.90
67777;DHT22;54576;52.020;5.536;2023-08-12T06:35:27;20.30;99.90
67777;DHT22;54576;52.020;5.536;2023-08-12T06:37:52;20.30;99.90
67777;DHT22;54576;52.020;5.536;2023-08-12T06:40:18;20.30;99.90
67777;DHT22;54576;52.020;5.536;2023-08-12T06:42:43;20.30;99.90
67777;DHT22;54576;52.020;5.536;2023-08-12T06:45:09;20.30;99.90
67777;DHT22;54576;52.020;5.536;2023-08-12T06:47:35;20.30;99.90
67777;DHT22;54576;52.020;5.536;2023-08-12T06:50:00;20.30;99.90
67777;DHT22;54576;52.020;5.536;2023-08-12T06:52:27;20.30;99.90
67777;DHT22;54576;52.020;5.536;2023-08-12T06:54:52;20.30;99.90
67777;DHT22;54576;52.020;5.536;2023-08-12T06:57:18;20.30;99.90
67777;DHT22;54576;52.020;5.536;2023-08-12T07:02:09;20.30;99.90
67777;DHT22;54576;52.020;5.536;2023-08-12T07:04:35;20.30;99.90
67777;DHT22;54576;52.020;5.536;2023-08-12T07:07:01;20.30;99.90
67777;DHT22;54576;52.020;5.536;2023-08-12T07:09:26;20.30;99.90
67777;DHT22;54576;52.020;5.536;2023-08-12T07:11:52;20.30;99.90
67777;DHT22;54576;52.020;5.536;2023-08-12T07:14:17;20.30;99.90
67777;DHT22;54576;52.020;5.536;2023-08-12T07:16:43;20.20;99.90
67777;DHT22;54576;52.020;5.536;2023-08-12T07:19:09;20.20;99.90
67777;DHT22;54576;52.020;5.536;2023-08-12T07:21:34;20.20;99.90
67777;DHT22;54576;52.020;5.536;2023-08-12T07:24:00;20.20;99.90
67777;DHT22;54576;52.020;5.536;2023-08-12T07:26:25;20.20;99.90
67777;DHT22;54576;52.020;5.536;2023-08-12T07:31:17;20.20;99.90
67777;DHT22;54576;52.020;5.536;2023-08-12T07:33:43;20.30;99.90
67777;DHT22;54576;52.020;5.536;2023-08-12T07:36:09;20.30;99.90
67777;DHT22;54576;52.020;5.536;2023-08-12T07:38:34;20.30;99.90
67777;DHT22;54576;52.020;5.536;2023-08-12T07:41:00;20.20;99.90
67777;DHT22;54576;52.020;5.536;2023-08-12T07:43:26;20.30;99.90
67777;DHT22;54576;52.020;5.536;2023-08-12T07:45:52;20.30;99.90
67777;DHT22;54576;52.020;5.536;2023-08-12T07:48:19;20.30;99.90
67777;DHT22;54576;52.020;5.536;2023-08-12T07:50:44;20.30;99.90
67777;DHT22;54576;52.020;5.536;2023-08-12T07:53:10;20.30;99.90
67777;DHT22;54576;52.020;5.536;2023-08-12T07:58:02;20.40;99.90
67777;DHT22;54576;52.020;5.536;2023-08-12T08:00:29;20.40;99.90
67777;DHT22;54576;52.020;5.536;2023-08-12T08:02:58;20.40;99.90
67777;DHT22;54576;52.020;5.536;2023-08-12T08:05:23;20.50;99.90
67777;DHT22;54576;52.020;5.536;2023-08-12T08:07:49;20.50;99.90
67777;DHT22;54576;52.020;5.536;2023-08-12T08:10:14;20.50;99.90
67777;DHT22;54576;52.020;5.536;2023-08-12T08:12:40;20.50;99.90
67777;DHT22;54576;52.020;5.536;2023-08-12T08:15:06;20.60;99.90
67777;DHT22;54576;52.020;5.536;2023-08-12T08:17:32;20.60;99.90
67777;DHT22;54576;52.020;5.536;2023-08-12T08:19:57;20.60;99.90
67777;DHT22;54576;52.020;5.536;2023-08-12T08:22:23;20.60;99.90
67777;DHT22;54576;52.020;5.536;2023-08-12T08:24:49;20.60;99.90
67777;DHT22;54576;52.020;5.536;2023-08-12T08:27:14;20.70;99.90
67777;DHT22;54576;52.020;5.536;2023-08-12T08:29:40;20.80;99.90
67777;DHT22;54576;52.020;5.536;2023-08-12T08:32:06;20.80;99.90
67777;DHT22;54576;52.020;5.536;2023-08-12T08:39:23;20.90;99.90
67777;DHT22;54576;52.020;5.536;2023-08-12T08:41:49;21.00;99.90
67777;DHT22;54576;52.020;5.536;2023-08-12T08:44:17;21.10;99.90
67777;DHT22;54576;52.020;5.536;2023-08-12T08:49:12;21.30;99.90
67777;DHT22;54576;52.020;5.536;2023-08-12T08:51:40;21.00;99.90
67777;DHT22;54576;52.020;5.536;2023-08-12T09:06:21;20.90;99.90
67777;DHT22;54576;52.020;5.536;2023-08-12T09:08:49;21.10;99.90
67777;DHT22;54576;52.020;5.536;2023-08-12T09:11:17;21.10;99.90
67777;DHT22;54576;52.020;5.536;2023-08-12T09:13:43;21.30;99.90
67777;DHT22;54576;52.020;5.536;2023-08-12T09:16:09;21.40;99.90
67777;DHT22;54576;52.020;5.536;2023-08-12T09:18:37;21.70;99.90
67777;DHT22;54576;52.020;5.536;2023-08-12T09:21:03;21.80;99.90
67777;DHT22;54576;52.020;5.536;2023-08-12T09:23:35;21.70;99.90
67777;DHT22;54576;52.020;5.536;2023-08-12T09:28:27;21.60;99.90
67777;DHT22;54576;52.020;5.536;2023-08-12T09:33:24;21.60;99.90
67777;DHT22;54576;52.020;5.536;2023-08-12T09:40:48;21.20;99.90
67777;DHT22;54576;52.020;5.536;2023-08-12T09:43:14;21.20;99.90
67777;DHT22;54576;52.020;5.536;2023-08-12T09:55:31;21.30;99.90
67777;DHT22;54576;52.020;5.536;2023-08-12T09:58:00;21.00;99.90
67777;DHT22;54576;52.020;5.536;2023-08-12T10:00:26;20.80;99.90
67777;DHT22;54576;52.020;5.536;2023-08-12T10:10:14;21.00;99.90
67777;DHT22;54576;52.020;5.536;2023-08-12T10:12:41;21.00;99.90
67777;DHT22;54576;52.020;5.536;2023-08-12T10:15:08;21.10;99.90
67777;DHT22;54576;52.020;5.536;2023-08-12T10:17:34;21.20;99.90
67777;DHT22;54576;52.020;5.536;2023-08-12T10:22:30;21.30;99.90
67777;DHT22;54576;52.020;5.536;2023-08-12T10:24:58;21.40;99.90
67777;DHT22;54576;52.020;5.536;2023-08-12T10:42:04;22.10;99.90
67777;DHT22;54576;52.020;5.536;2023-08-12T10:44:40;22.10;99.90
67777;DHT22;54576;52.020;5.536;2023-08-12T10:49:47;23.00;99.90
67777;DHT22;54576;52.020;5.536;2023-08-12T10:52:26;22.80;99.90
67777;DHT22;54576;52.020;5.536;2023-08-12T10:57:35;23.10;99.90
67777;DHT22;54576;52.020;5.536;2023-08-12T11:15:31;23.30;92.90
67777;DHT22;54576;52.020;5.536;2023-08-12T11:18:06;23.30;99.90
67777;DHT22;54576;52.020;5.536;2023-08-12T11:20:33;23.20;99.90
67777;DHT22;54576;52.020;5.536;2023-08-12T11:23:00;23.00;99.90
67777;DHT22;54576;52.020;5.536;2023-08-12T11:27:54;23.00;99.90
67777;DHT22;54576;52.020;5.536;2023-08-12T11:30:21;23.20;99.90
67777;DHT22;54576;52.020;5.536;2023-08-12T11:32:49;23.20;99.90
67777;DHT22;54576;52.020;5.536;2023-08-12T11:35:16;23.20;99.90
67777;DHT22;54576;52.020;5.536;2023-08-12T11:37:48;23.30;99.90
67777;DHT22;54576;52.020;5.536;2023-08-12T11:40:16;23.40;99.90
67777;DHT22;54576;52.020;5.536;2023-08-12T11:45:10;23.40;99.90
67777;DHT22;54576;52.020;5.536;2023-08-12T11:47:38;23.50;99.90
67777;DHT22;54576;52.020;5.536;2023-08-12T11:50:25;23.40;99.90
67777;DHT22;54576;52.020;5.536;2023-08-12T11:52:52;23.40;90.80
67777;DHT22;54576;52.020;5.536;2023-08-12T11:57:45;23.50;99.60
67777;DHT22;54576;52.020;5.536;2023-08-12T12:00:12;23.60;99.90
67777;DHT22;54576;52.020;5.536;2023-08-12T12:02:51;23.80;98.20
67777;DHT22;54576;52.020;5.536;2023-08-12T12:05:18;24.00;96.90
67777;DHT22;54576;52.020;5.536;2023-08-12T12:07:44;24.00;97.80
67777;DHT22;54576;52.020;5.536;2023-08-12T12:10:20;24.30;99.90
67777;DHT22;54576;52.020;5.536;2023-08-12T12:12:47;24.00;91.70
67777;DHT22;54576;52.020;5.536;2023-08-12T12:15:14;23.90;95.90
67777;DHT22;54576;52.020;5.536;2023-08-12T12:17:44;23.90;95.20
67777;DHT22;54576;52.020;5.536;2023-08-12T12:20:11;23.90;94.60
67777;DHT22;54576;52.020;5.536;2023-08-12T12:22:37;23.80;96.20
67777;DHT22;54576;52.020;5.536;2023-08-12T12:25:07;23.60;94.20
67777;DHT22;54576;52.020;5.536;2023-08-12T12:27:33;23.60;84.30
67777;DHT22;54576;52.020;5.536;2023-08-12T12:30:00;23.50;93.70
67777;DHT22;54576;52.020;5.536;2023-08-12T12:32:26;23.40;93.90
67777;DHT22;54576;52.020;5.536;2023-08-12T12:34:52;23.40;94.50
67777;DHT22;54576;52.020;5.536;2023-08-12T12:39:44;23.80;99.90
67777;DHT22;54576;52.020;5.536;2023-08-12T12:42:10;24.00;93.90
67777;DHT22;54576;52.020;5.536;2023-08-12T12:44:36;24.00;91.90
67777;DHT22;54576;52.020;5.536;2023-08-12T12:47:03;24.00;91.50
67777;DHT22;54576;52.020;5.536;2023-08-12T12:49:28;21.40;90.20
67777;DHT22;54576;52.020;5.536;2023-08-12T12:51:54;24.10;92.70
67777;DHT22;54576;52.020;5.536;2023-08-12T12:54:20;24.40;91.40
67777;DHT22;54576;52.020;5.536;2023-08-12T12:59:11;24.40;99.90
67777;DHT22;54576;52.020;5.536;2023-08-12T13:01:37;24.40;86.90
67777;DHT22;54576;52.020;5.536;2023-08-12T13:04:03;24.30;88.10
67777;DHT22;54576;52.020;5.536;2023-08-12T13:06:29;24.20;89.10
67777;DHT22;54576;52.020;5.536;2023-08-12T13:08:55;24.20;87.00
67777;DHT22;54576;52.020;5.536;2023-08-12T13:11:20;24.10;85.70
67777;DHT22;54576;52.020;5.536;2023-08-12T13:13:46;24.30;97.90
67777;DHT22;54576;52.020;5.536;2023-08-12T13:16:12;24.30;86.40
67777;DHT22;54576;52.020;5.536;2023-08-12T13:18:37;24.50;86.30
67777;DHT22;54576;52.020;5.536;2023-08-12T13:21:03;24.70;84.40
67777;DHT22;54576;52.020;5.536;2023-08-12T13:23:28;24.90;83.60
67777;DHT22;54576;52.020;5.536;2023-08-12T13:25:54;25.00;81.80
67777;DHT22;54576;52.020;5.536;2023-08-12T13:28:19;25.10;80.60
67777;DHT22;54576;52.020;5.536;2023-08-12T13:30:45;25.10;80.40
67777;DHT22;54576;52.020;5.536;2023-08-12T13:33:11;25.30;81.60
67777;DHT22;54576;52.020;5.536;2023-08-12T13:35:37;25.40;79.90
67777;DHT22;54576;52.020;5.536;2023-08-12T13:38:03;25.40;77.50
67777;DHT22;54576;52.020;5.536;2023-08-12T13:40:29;25.40;77.00
67777;DHT22;54576;52.020;5.536;2023-08-12T13:42:54;25.40;76.50
67777;DHT22;54576;52.020;5.536;2023-08-12T13:45:20;25.30;77.20
67777;DHT22;54576;52.020;5.536;2023-08-12T13:47:46;25.30;76.20
67777;DHT22;54576;52.020;5.536;2023-08-12T13:50:11;25.10;76.00
67777;DHT22;54576;52.020;5.536;2023-08-12T13:52:38;25.00;75.10
67777;DHT22;54576;52.020;5.536;2023-08-12T13:55:04;24.90;75.70
67777;DHT22;54576;52.020;5.536;2023-08-12T13:57:33;24.80;76.60
67777;DHT22;54576;52.020;5.536;2023-08-12T14:04:51;24.90;70.40
67777;DHT22;54576;52.020;5.536;2023-08-12T14:07:16;25.00;76.40
67777;DHT22;54576;52.020;5.536;2023-08-12T14:09:45;24.90;75.00
67777;DHT22;54576;52.020;5.536;2023-08-12T14:12:11;24.90;75.60
67777;DHT22;54576;52.020;5.536;2023-08-12T14:14:36;24.90;75.10
67777;DHT22;54576;52.020;5.536;2023-08-12T14:17:02;24.80;73.10
67777;DHT22;54576;52.020;5.536;2023-08-12T14:21:54;25.10;66.10
67777;DHT22;54576;52.020;5.536;2023-08-12T14:24:19;25.20;72.90
67777;DHT22;54576;52.020;5.536;2023-08-12T14:26:45;25.20;72.50
67777;DHT22;54576;52.020;5.536;2023-08-12T14:29:10;25.20;71.60
67777;DHT22;54576;52.020;5.536;2023-08-12T14:31:36;25.20;70.40
67777;DHT22;54576;52.020;5.536;2023-08-12T14:34:01;25.10;72.30
67777;DHT22;54576;52.020;5.536;2023-08-12T14:36:28;25.00;71.40
67777;DHT22;54576;52.020;5.536;2023-08-12T14:38:54;24.90;71.70
67777;DHT22;54576;52.020;5.536;2023-08-12T14:41:19;24.90;70.50
67777;DHT22;54576;52.020;5.536;2023-08-12T14:43:45;24.70;70.00
67777;DHT22;54576;52.020;5.536;2023-08-12T14:46:10;24.70;70.00
67777;DHT22;54576;52.020;5.536;2023-08-12T14:48:36;24.70;70.00
67777;DHT22;54576;52.020;5.536;2023-08-12T14:51:02;24.70;71.50
67777;DHT22;54576;52.020;5.536;2023-08-12T14:53:27;24.80;70.10
67777;DHT22;54576;52.020;5.536;2023-08-12T14:55:53;24.90;68.70
67777;DHT22;54576;52.020;5.536;2023-08-12T14:58:19;24.80;68.60
67777;DHT22;54576;52.020;5.536;2023-08-12T15:00:46;24.80;68.10
67777;DHT22;54576;52.020;5.536;2023-08-12T15:03:12;24.80;68.70
67777;DHT22;54576;52.020;5.536;2023-08-12T15:05:39;24.80;68.30
67777;DHT22;54576;52.020;5.536;2023-08-12T15:08:08;24.70;67.90
67777;DHT22;54576;52.020;5.536;2023-08-12T15:10:34;24.70;68.40
67777;DHT22;54576;52.020;5.536;2023-08-12T15:13:03;24.70;68.20
67777;DHT22;54576;52.020;5.536;2023-08-12T15:15:28;24.70;67.90
67777;DHT22;54576;52.020;5.536;2023-08-12T15:20:20;24.60;66.80
67777;DHT22;54576;52.020;5.536;2023-08-12T15:22:45;24.60;68.70
67777;DHT22;54576;52.020;5.536;2023-08-12T15:25:11;24.50;69.00
67777;DHT22;54576;52.020;5.536;2023-08-12T15:27:37;24.60;69.00
67777;DHT22;54576;52.020;5.536;2023-08-12T15:30:03;24.50;67.30
67777;DHT22;54576;52.020;5.536;2023-08-12T15:32:29;24.40;68.10
67777;DHT22;54576;52.020;5.536;2023-08-12T15:34:55;24.30;68.00
67777;DHT22;54576;52.020;5.536;2023-08-12T15:37:21;24.30;68.00
67777;DHT22;54576;52.020;5.536;2023-08-12T15:39:47;24.20;68.00
67777;DHT22;54576;52.020;5.536;2023-08-12T15:42:12;24.00;69.20
67777;DHT22;54576;52.020;5.536;2023-08-12T15:44:38;23.80;68.80
67777;DHT22;54576;52.020;5.536;2023-08-12T15:47:03;23.70;69.30
67777;DHT22;54576;52.020;5.536;2023-08-12T15:49:33;23.80;71.00
67777;DHT22;54576;52.020;5.536;2023-08-12T15:51:59;24.00;69.80
67777;DHT22;54576;52.020;5.536;2023-08-12T15:54:24;24.10;69.80
67777;DHT22;54576;52.020;5.536;2023-08-12T15:56:51;24.20;69.10
67777;DHT22;54576;52.020;5.536;2023-08-12T15:59:16;24.10;68.00
67777;DHT22;54576;52.020;5.536;2023-08-12T16:01:42;24.10;68.20
67777;DHT22;54576;52.020;5.536;2023-08-12T16:04:08;24.10;68.90
67777;DHT22;54576;52.020;5.536;2023-08-12T16:06:33;24.00;68.40
67777;DHT22;54576;52.020;5.536;2023-08-12T16:08:59;23.90;69.60
67777;DHT22;54576;52.020;5.536;2023-08-12T16:11:24;23.80;68.40
67777;DHT22;54576;52.020;5.536;2023-08-12T16:13:50;23.90;68.00
67777;DHT22;54576;52.020;5.536;2023-08-12T16:16:16;23.80;67.50
67777;DHT22;54576;52.020;5.536;2023-08-12T16:18:41;23.80;66.80
67777;DHT22;54576;52.020;5.536;2023-08-12T16:21:07;23.80;66.70
67777;DHT22;54576;52.020;5.536;2023-08-12T16:23:32;23.70;66.00
67777;DHT22;54576;52.020;5.536;2023-08-12T16:25:58;23.70;66.60
67777;DHT22;54576;52.020;5.536;2023-08-12T16:28:25;23.60;65.90
67777;DHT22;54576;52.020;5.536;2023-08-12T16:30:51;23.60;65.90
67777;DHT22;54576;52.020;5.536;2023-08-12T16:33:17;23.50;65.70
67777;DHT22;54576;52.020;5.536;2023-08-12T16:35:42;23.50;66.00
67777;DHT22;54576;52.020;5.536;2023-08-12T16:38:08;23.50;65.70
67777;DHT22;54576;52.020;5.536;2023-08-12T16:40:33;23.40;65.70
67777;DHT22;54576;52.020;5.536;2023-08-12T16:42:59;23.40;65.30
67777;DHT22;54576;52.020;5.536;2023-08-12T16:45:25;23.40;65.40
67777;DHT22;54576;52.020;5.536;2023-08-12T16:47:50;23.40;65.30
67777;DHT22;54576;52.020;5.536;2023-08-12T16:50:16;23.30;65.00
67777;DHT22;54576;52.020;5.536;2023-08-12T16:52:42;23.20;64.80
67777;DHT22;54576;52.020;5.536;2023-08-12T16:55:08;23.20;64.90
67777;DHT22;54576;52.020;5.536;2023-08-12T16:57:34;23.20;65.00
67777;DHT22;54576;52.020;5.536;2023-08-12T16:59:59;23.20;64.80
67777;DHT22;54576;52.020;5.536;2023-08-12T17:02:28;23.10;65.00
67777;DHT22;54576;52.020;5.536;2023-08-12T17:04:54;23.10;65.00
67777;DHT22;54576;52.020;5.536;2023-08-12T17:07:19;23.10;65.00
67777;DHT22;54576;52.020;5.536;2023-08-12T17:09:45;23.10;65.10
67777;DHT22;54576;52.020;5.536;2023-08-12T17:12:11;23.00;65.30
67777;DHT22;54576;52.020;5.536;2023-08-12T17:14:36;23.00;65.50
67777;DHT22;54576;52.020;5.536;2023-08-12T17:17:02;23.00;65.50
67777;DHT22;54576;52.020;5.536;2023-08-12T17:19:28;23.00;64.90